Time;durP1;ratioP1;P1;durP2;ratioP2;P2;SDS_P1;SDS_P2;PMS_P1;PMS_P2;Temp;Humidity;BMP_temperature;BMP_pressure;BME280_temperature;BME280_humidity;BME280_pressure;Samples;Min_cycle;Max_cycle;Signal;HPM_P1;HPM_P2
2021/05/28 00:01:19;;;;;;;5.88;4.32;;;;;;;;;;5071677;28;20052;-65
2021/05/28 00:03:45;;;;;;;5.10;3.67;;;;;;;;;;5071852;28;20118;-65
2021/05/28 00:06:12;;;;;;;5.35;3.60;;;;;;;;;;5071610;28;20059;-65
2021/05/28 00:08:39;;;;;;;5.45;3.85;;;;;;;;;;5072060;28;20044;-66
2021/05/28 00:11:05;;;;;;;5.70;3.47;;;;;;;;;;5071853;28;20059;-65
2021/05/28 00:13:31;;;;;;;5.00;3.92;;;;;;;;;;5066129;28;20048;-66
2021/05/28 00:15:57;;;;;;;6.32;3.38;;;;;;;;;;5067193;28;20044;-65
2021/05/28 00:18:23;;;;;;;4.65;3.65;;;;;;;;;;5071134;28;20500;-65
2021/05/28 00:20:49;;;;;;;18.17;5.25;;;;;;;;;;5071399;28;20330;-66
2021/05/28 00:23:16;;;;;;;4.88;3.80;;;;;;;;;;5071990;28;20068;-66
2021/05/28 00:25:42;;;;;;;12.35;4.38;;;;;;;;;;5071279;28;20476;-66
2021/05/28 00:28:08;;;;;;;21.80;4.57;;;;;;;;;;5064970;28;20049;-66
2021/05/28 00:30:34;;;;;;;4.45;3.42;;;;;;;;;;5071510;28;20048;-66
2021/05/28 00:33:00;;;;;;;6.00;3.47;;;;;;;;;;5071447;28;20052;-66
2021/05/28 00:35:26;;;;;;;6.65;3.47;;;;;;;;;;5071738;28;20496;-66
2021/05/28 00:37:53;;;;;;;4.70;3.00;;;;;;;;;;5070704;28;20037;-66
2021/05/28 00:40:20;;;;;;;4.55;3.42;;;;;;;;;;5068408;28;20052;-66
2021/05/28 00:42:46;;;;;;;5.32;3.35;;;;;;;;;;5071005;28;20516;-66
2021/05/28 00:45:13;;;;;;;6.22;3.45;;;;;;;;;;5071400;28;20060;-66
2021/05/28 00:47:39;;;;;;;4.43;3.38;;;;;;;;;;5070701;28;20040;-66
2021/05/28 00:50:06;;;;;;;5.18;3.25;;;;;;;;;;5070595;28;20052;-66
2021/05/28 00:52:32;;;;;;;4.10;2.88;;;;;;;;;;5071407;28;20051;-66
2021/05/28 00:54:58;;;;;;;4.28;3.28;;;;;;;;;;5071181;28;20561;-66
2021/05/28 00:57:27;;;;;;;5.25;3.85;;;;;;;;;;5070928;28;20049;-66
2021/05/28 00:59:56;;;;;;;4.55;3.95;;;;;;;;;;5071169;28;20390;-66
2021/05/28 01:02:24;;;;;;;6.40;3.65;;;;;;;;;;5071170;28;20041;-65
2021/05/28 01:04:50;;;;;;;3.88;2.90;;;;;;;;;;5071341;28;20044;-66
2021/05/28 01:07:17;;;;;;;3.28;2.58;;;;;;;;;;5070737;28;20492;-66
2021/05/28 01:09:43;;;;;;;5.80;4.05;;;;;;;;;;5071125;28;20047;-66
2021/05/28 01:12:10;;;;;;;4.28;3.20;;;;;;;;;;5071379;28;20048;-66
2021/05/28 01:14:37;;;;;;;4.25;2.83;;;;;;;;;;5073464;28;20048;-66
2021/05/28 01:17:03;;;;;;;5.78;3.70;;;;;;;;;;5072936;28;20056;-67
2021/05/28 01:19:30;;;;;;;4.28;3.03;;;;;;;;;;5074387;28;20048;-66
2021/05/28 01:21:56;;;;;;;5.35;3.40;;;;;;;;;;5074641;28;20423;-66
2021/05/28 01:24:23;;;;;;;3.55;2.65;;;;;;;;;;5074076;28;20476;-66
2021/05/28 01:26:49;;;;;;;4.47;3.20;;;;;;;;;;5074173;28;20041;-67
2021/05/28 01:29:15;;;;;;;3.78;2.90;;;;;;;;;;5074685;28;20047;-67
2021/05/28 01:31:41;;;;;;;4.47;2.88;;;;;;;;;;5072184;28;20044;-66
2021/05/28 01:34:07;;;;;;;5.13;3.30;;;;;;;;;;5074445;28;20049;-67
2021/05/28 01:36:33;;;;;;;5.45;3.35;;;;;;;;;;5074153;28;20083;-66
2021/05/28 01:38:59;;;;;;;4.13;2.95;;;;;;;;;;5073652;28;20105;-66
2021/05/28 01:41:29;;;;;;;4.57;2.90;;;;;;;;;;5074097;28;20041;-66
2021/05/28 01:43:55;;;;;;;4.43;3.20;;;;;;;;;;5074009;28;20119;-66
2021/05/28 01:46:21;;;;;;;5.28;3.30;;;;;;;;;;5073962;28;20055;-66
2021/05/28 01:48:47;;;;;;;4.30;3.08;;;;;;;;;;5073019;28;20399;-66
2021/05/28 01:51:13;;;;;;;3.53;2.75;;;;;;;;;;5072044;28;20046;-67
2021/05/28 01:53:39;;;;;;;5.18;3.38;;;;;;;;;;5073358;28;20048;-67
2021/05/28 01:56:05;;;;;;;4.30;3.00;;;;;;;;;;5073405;28;20083;-66
2021/05/28 01:58:32;;;;;;;4.22;3.17;;;;;;;;;;5073244;28;20045;-67
2021/05/28 02:00:58;;;;;;;4.80;3.15;;;;;;;;;;5071236;28;20041;-66
2021/05/28 02:03:25;;;;;;;4.25;2.90;;;;;;;;;;5073564;28;20040;-66
2021/05/28 02:05:51;;;;;;;4.28;2.90;;;;;;;;;;5073605;28;20518;-66
2021/05/28 02:08:17;;;;;;;4.55;3.30;;;;;;;;;;5073724;28;20079;-66
2021/05/28 02:10:44;;;;;;;4.00;3.08;;;;;;;;;;5073353;28;20056;-66
2021/05/28 02:13:10;;;;;;;3.65;2.70;;;;;;;;;;5073083;28;20075;-66
2021/05/28 02:15:37;;;;;;;5.72;4.28;;;;;;;;;;5071469;28;20052;-67
2021/05/28 02:18:04;;;;;;;7.13;4.22;;;;;;;;;;5069196;28;20052;-67
2021/05/28 02:20:30;;;;;;;5.15;3.17;;;;;;;;;;5068813;28;20048;-67
2021/05/28 02:22:56;;;;;;;5.25;3.05;;;;;;;;;;5072832;28;20040;-66
2021/05/28 02:25:22;;;;;;;3.60;2.50;;;;;;;;;;5073001;28;20041;-66
2021/05/28 02:27:48;;;;;;;4.13;3.03;;;;;;;;;;5073137;28;20047;-66
2021/05/28 02:30:15;;;;;;;3.58;2.60;;;;;;;;;;5073163;28;20485;-66
2021/05/28 02:32:41;;;;;;;5.05;2.85;;;;;;;;;;5072954;28;20045;-67
2021/05/28 02:35:09;;;;;;;4.57;2.60;;;;;;;;;;5073202;28;20075;-67
2021/05/28 02:37:36;;;;;;;4.72;3.10;;;;;;;;;;5070964;28;20552;-67
2021/05/28 02:40:02;;;;;;;4.63;3.40;;;;;;;;;;5072889;28;20097;-67
2021/05/28 02:42:28;;;;;;;4.88;3.45;;;;;;;;;;5072719;28;20044;-66
2021/05/28 02:44:54;;;;;;;4.75;3.30;;;;;;;;;;5073185;28;20062;-67
2021/05/28 02:47:20;;;;;;;3.83;2.95;;;;;;;;;;5072494;28;20048;-67
2021/05/28 02:49:47;;;;;;;3.83;3.05;;;;;;;;;;5072094;28;20136;-67
2021/05/28 02:52:14;;;;;;;4.38;2.72;;;;;;;;;;5072463;28;20059;-67
2021/05/28 02:54:40;;;;;;;5.40;3.42;;;;;;;;;;5068318;28;20048;-67
2021/05/28 02:57:06;;;;;;;5.18;3.25;;;;;;;;;;5072146;28;20098;-66
2021/05/28 02:59:32;;;;;;;4.43;3.15;;;;;;;;;;5072598;28;20051;-67
2021/05/28 03:01:58;;;;;;;7.40;3.38;;;;;;;;;;5072396;28;20048;-67
2021/05/28 03:04:24;;;;;;;4.97;3.17;;;;;;;;;;5072308;28;20120;-66
2021/05/28 03:06:51;;;;;;;4.18;2.60;;;;;;;;;;5072156;28;20052;-66
2021/05/28 03:09:17;;;;;;;4.78;2.72;;;;;;;;;;5072439;28;20070;-67
2021/05/28 03:11:43;;;;;;;3.92;2.60;;;;;;;;;;5068373;28;20056;-66
2021/05/28 03:14:09;;;;;;;3.90;2.75;;;;;;;;;;5071887;28;20427;-66
2021/05/28 03:16:35;;;;;;;3.65;2.50;;;;;;;;;;5068296;28;20060;-66
2021/05/28 03:19:03;;;;;;;3.88;2.83;;;;;;;;;;5069182;28;20041;-67
2021/05/28 03:21:39;;;;;;;5.53;3.20;;;;;;;;;;5072219;28;20477;-66
2021/05/28 03:24:07;;;;;;;3.67;2.67;;;;;;;;;;5072240;28;20523;-67
2021/05/28 03:26:33;;;;;;;5.50;3.05;;;;;;;;;;5071819;28;20064;-67
2021/05/28 03:28:59;;;;;;;4.07;2.75;;;;;;;;;;5071221;28;20040;-67
2021/05/28 03:31:26;;;;;;;4.32;2.67;;;;;;;;;;5071827;28;20506;-67
2021/05/28 03:33:52;;;;;;;4.45;3.03;;;;;;;;;;5071911;28;20590;-67
2021/05/28 03:36:18;;;;;;;5.05;3.13;;;;;;;;;;5071385;28;20059;-67
2021/05/28 03:38:45;;;;;;;4.22;2.75;;;;;;;;;;5071460;28;20388;-67
2021/05/28 03:41:12;;;;;;;4.70;2.70;;;;;;;;;;5071860;28;20048;-67
2021/05/28 03:43:38;;;;;;;3.78;2.53;;;;;;;;;;5072143;28;20499;-67
2021/05/28 03:46:04;;;;;;;3.80;2.90;;;;;;;;;;5071709;28;20143;-67
2021/05/28 03:48:30;;;;;;;5.15;3.22;;;;;;;;;;5070380;28;20066;-67
2021/05/28 03:50:56;;;;;;;4.43;3.17;;;;;;;;;;5068799;28;20094;-67
2021/05/28 03:53:22;;;;;;;5.75;3.58;;;;;;;;;;5071559;28;20048;-67
2021/05/28 03:55:48;;;;;;;4.50;2.72;;;;;;;;;;5071906;28;20491;-67
2021/05/28 03:58:15;;;;;;;4.93;2.78;;;;;;;;;;5071149;28;20044;-67
2021/05/28 04:00:42;;;;;;;5.45;2.92;;;;;;;;;;5071765;28;20044;-67
2021/05/28 04:03:08;;;;;;;5.03;2.78;;;;;;;;;;5071837;28;20480;-67
2021/05/28 04:05:34;;;;;;;4.65;3.30;;;;;;;;;;5071809;28;20056;-67
2021/05/28 04:08:00;;;;;;;3.70;2.47;;;;;;;;;;5071535;28;20646;-67
2021/05/28 04:10:26;;;;;;;5.18;3.20;;;;;;;;;;5071552;28;20060;-67
2021/05/28 04:12:53;;;;;;;5.68;3.00;;;;;;;;;;5071407;28;20048;-67
2021/05/28 04:15:20;;;;;;;5.85;3.30;;;;;;;;;;5069855;28;20420;-67
2021/05/28 04:17:46;;;;;;;4.35;2.85;;;;;;;;;;5068474;28;20464;-67
2021/05/28 04:20:13;;;;;;;5.20;3.15;;;;;;;;;;5071195;28;20053;-67
2021/05/28 04:22:39;;;;;;;4.63;3.15;;;;;;;;;;5071370;28;20076;-67
2021/05/28 04:25:06;;;;;;;3.80;2.78;;;;;;;;;;5071367;28;20059;-67
2021/05/28 04:27:32;;;;;;;3.90;2.90;;;;;;;;;;5069850;28;20056;-67
2021/05/28 04:29:58;;;;;;;4.03;2.80;;;;;;;;;;5070759;28;20049;-67
2021/05/28 04:32:25;;;;;;;6.07;3.70;;;;;;;;;;5070832;28;20052;-67
2021/05/28 04:34:50;;;;;;;6.93;3.60;;;;;;;;;;5071487;28;20582;-67
2021/05/28 04:37:16;;;;;;;4.30;2.90;;;;;;;;;;5071161;28;20044;-67
2021/05/28 04:39:42;;;;;;;4.60;3.13;;;;;;;;;;5068686;28;20044;-67
2021/05/28 04:42:08;;;;;;;4.07;2.60;;;;;;;;;;5071376;28;20188;-67
2021/05/28 04:44:34;;;;;;;4.63;2.78;;;;;;;;;;5071119;28;20453;-67
2021/05/28 04:47:00;;;;;;;3.90;2.70;;;;;;;;;;5073077;28;20135;-67
2021/05/28 04:49:27;;;;;;;4.53;2.97;;;;;;;;;;5074037;28;20068;-67
2021/05/28 04:51:53;;;;;;;4.40;2.95;;;;;;;;;;5074905;28;20041;-67
2021/05/28 04:54:19;;;;;;;4.40;2.95;;;;;;;;;;5074703;28;20045;-67
2021/05/28 04:56:45;;;;;;;5.97;2.90;;;;;;;;;;5074929;28;20053;-67
2021/05/28 04:59:11;;;;;;;4.63;2.50;;;;;;;;;;5074351;28;20044;-67
2021/05/28 05:01:37;;;;;;;5.90;3.65;;;;;;;;;;5074505;28;20641;-67
2021/05/28 05:04:03;;;;;;;7.22;3.50;;;;;;;;;;5074374;28;20475;-67
2021/05/28 05:06:30;;;;;;;14.70;3.83;;;;;;;;;;5074416;28;20399;-67
2021/05/28 05:08:56;;;;;;;4.10;2.97;;;;;;;;;;5074996;28;20045;-67
2021/05/28 05:11:22;;;;;;;4.70;3.33;;;;;;;;;;5074517;28;20063;-67
2021/05/28 05:13:48;;;;;;;5.22;3.85;;;;;;;;;;5073950;28;20048;-67
2021/05/28 05:16:14;;;;;;;5.25;3.00;;;;;;;;;;5073485;28;20076;-67
2021/05/28 05:18:40;;;;;;;6.50;3.15;;;;;;;;;;5072642;28;20498;-67
2021/05/28 05:21:06;;;;;;;3.38;2.53;;;;;;;;;;5073534;28;20135;-67
2021/05/28 05:23:33;;;;;;;3.95;3.05;;;;;;;;;;5074590;28;20052;-67
2021/05/28 05:25:59;;;;;;;4.82;3.47;;;;;;;;;;5074129;28;20044;-67
2021/05/28 05:28:25;;;;;;;4.60;3.30;;;;;;;;;;5073943;28;20128;-67
2021/05/28 05:30:51;;;;;;;6.32;3.83;;;;;;;;;;5074326;28;20507;-67
2021/05/28 05:33:17;;;;;;;4.43;3.03;;;;;;;;;;5073539;28;20049;-67
2021/05/28 05:35:43;;;;;;;6.32;3.08;;;;;;;;;;5074109;28;20079;-67
2021/05/28 05:38:09;;;;;;;6.70;3.70;;;;;;;;;;5073296;28;20535;-67
2021/05/28 05:40:36;;;;;;;6.35;3.78;;;;;;;;;;5073574;28;20056;-67
2021/05/28 05:43:03;;;;;;;4.05;2.90;;;;;;;;;;5073351;28;20540;-67
2021/05/28 05:45:29;;;;;;;5.32;3.72;;;;;;;;;;5073559;28;20048;-67
2021/05/28 05:47:55;;;;;;;4.63;2.83;;;;;;;;;;5072581;28;20043;-67
2021/05/28 05:50:21;;;;;;;4.93;3.20;;;;;;;;;;5074692;28;20052;-67
2021/05/28 05:52:46;;;;;;;5.75;3.78;;;;;;;;;;5072952;28;20561;-67
2021/05/28 05:55:13;;;;;;;6.47;3.15;;;;;;;;;;5072975;28;20057;-67
2021/05/28 05:57:40;;;;;;;5.88;4.93;;;;;;;;;;5072914;28;20438;-67
2021/05/28 06:00:07;;;;;;;6.43;4.45;;;;;;;;;;5073645;28;20054;-67
2021/05/28 06:02:34;;;;;;;9.52;4.13;;;;;;;;;;5072881;28;20468;-67
2021/05/28 06:05:00;;;;;;;7.07;4.30;;;;;;;;;;5073803;28;20075;-66
2021/05/28 06:07:26;;;;;;;7.25;4.50;;;;;;;;;;5073427;28;20511;-66
2021/05/28 06:09:52;;;;;;;6.32;3.58;;;;;;;;;;5073823;28;20073;-67
2021/05/28 06:12:18;;;;;;;6.00;3.70;;;;;;;;;;5073517;28;20049;-66
2021/05/28 06:14:44;;;;;;;7.13;4.03;;;;;;;;;;5073379;28;20461;-67
2021/05/28 06:17:10;;;;;;;4.35;3.55;;;;;;;;;;5072663;28;20045;-67
2021/05/28 06:19:36;;;;;;;7.75;4.25;;;;;;;;;;5067088;28;20110;-67
2021/05/28 06:22:02;;;;;;;7.43;3.33;;;;;;;;;;5063598;28;20080;-67
2021/05/28 06:24:28;;;;;;;4.75;3.60;;;;;;;;;;5073025;28;20055;-67
2021/05/28 06:26:54;;;;;;;7.20;4.35;;;;;;;;;;5073312;28;20049;-67
2021/05/28 06:29:20;;;;;;;8.45;4.25;;;;;;;;;;5072805;28;20054;-66
2021/05/28 06:31:47;;;;;;;7.63;4.15;;;;;;;;;;5074318;28;20045;-66
2021/05/28 06:34:13;;;;;;;13.82;4.50;;;;;;;;;;5072552;28;20623;-66
2021/05/28 06:36:39;;;;;;;6.65;4.13;;;;;;;;;;5073132;28;20045;-66
2021/05/28 06:39:07;;;;;;;5.80;4.70;;;;;;;;;;5072278;28;20376;-66
2021/05/28 06:41:33;;;;;;;5.85;3.55;;;;;;;;;;5072761;28;20069;-66
2021/05/28 06:43:59;;;;;;;7.05;4.45;;;;;;;;;;5073266;28;20060;-66
2021/05/28 06:46:25;;;;;;;5.95;4.50;;;;;;;;;;5072787;28;20479;-66
2021/05/28 06:48:54;;;;;;;6.35;4.35;;;;;;;;;;5073014;28;20048;-66
2021/05/28 06:51:20;;;;;;;6.47;4.38;;;;;;;;;;5073011;28;20148;-66
2021/05/28 06:53:46;;;;;;;7.05;4.80;;;;;;;;;;5072716;28;20112;-66
2021/05/28 06:56:12;;;;;;;6.13;4.20;;;;;;;;;;5072976;28;20438;-66
2021/05/28 06:58:38;;;;;;;8.48;4.20;;;;;;;;;;5072310;28;20076;-66
2021/05/28 07:01:04;;;;;;;11.43;5.10;;;;;;;;;;5072614;28;20059;-66
2021/05/28 07:03:31;;;;;;;5.65;3.92;;;;;;;;;;5072396;28;20056;-66
2021/05/28 07:05:57;;;;;;;9.10;4.55;;;;;;;;;;5072438;28;20054;-66
2021/05/28 07:08:23;;;;;;;10.40;4.90;;;;;;;;;;5071601;28;20062;-67
2021/05/28 07:10:50;;;;;;;5.88;5.22;;;;;;;;;;5070827;28;20048;-66
2021/05/28 07:13:16;;;;;;;9.07;4.88;;;;;;;;;;5072029;28;20583;-67
2021/05/28 07:15:42;;;;;;;6.63;4.60;;;;;;;;;;5071577;28;20048;-66
2021/05/28 07:18:08;;;;;;;6.13;4.93;;;;;;;;;;5071377;28;20128;-66
2021/05/28 07:20:35;;;;;;;6.40;4.68;;;;;;;;;;5066695;28;20059;-67
2021/05/28 07:23:01;;;;;;;5.97;4.40;;;;;;;;;;5065985;28;20055;-66
2021/05/28 07:25:27;;;;;;;6.00;4.60;;;;;;;;;;5071556;28;20052;-66
2021/05/28 07:27:53;;;;;;;7.10;4.43;;;;;;;;;;5071628;28;20048;-66
2021/05/28 07:30:20;;;;;;;5.40;4.47;;;;;;;;;;5071546;28;20067;-67
2021/05/28 07:32:46;;;;;;;6.50;4.88;;;;;;;;;;5072509;28;20048;-66
2021/05/28 07:35:12;;;;;;;6.00;4.70;;;;;;;;;;5071678;28;20408;-66
2021/05/28 07:37:39;;;;;;;5.57;4.15;;;;;;;;;;5070752;28;20485;-66
2021/05/28 07:40:09;;;;;;;6.90;4.25;;;;;;;;;;5070519;28;20048;-66
2021/05/28 07:42:35;;;;;;;6.90;3.80;;;;;;;;;;5070929;28;20048;-67
2021/05/28 07:45:01;;;;;;;6.70;4.35;;;;;;;;;;5071301;28;20532;-66
2021/05/28 07:47:27;;;;;;;5.57;3.40;;;;;;;;;;5070883;28;20150;-67
2021/05/28 07:49:53;;;;;;;4.78;4.13;;;;;;;;;;5070980;28;20045;-67
2021/05/28 07:52:19;;;;;;;5.55;4.05;;;;;;;;;;5071457;28;20492;-67
2021/05/28 07:54:45;;;;;;;5.55;3.90;;;;;;;;;;5070909;28;20041;-67
2021/05/28 07:57:12;;;;;;;5.00;3.92;;;;;;;;;;5070265;28;20079;-67
2021/05/28 07:59:38;;;;;;;6.07;4.20;;;;;;;;;;5071153;28;20085;-67
2021/05/28 08:02:05;;;;;;;5.35;3.85;;;;;;;;;;5071002;28;20139;-66
2021/05/28 08:04:31;;;;;;;5.18;4.25;;;;;;;;;;5070691;28;20052;-66
2021/05/28 08:06:57;;;;;;;5.20;4.18;;;;;;;;;;5071087;28;20047;-66
2021/05/28 08:09:23;;;;;;;4.80;4.10;;;;;;;;;;5071480;28;20048;-65
2021/05/28 08:11:49;;;;;;;5.80;3.72;;;;;;;;;;5071639;28;20566;-65
2021/05/28 08:14:15;;;;;;;4.90;3.67;;;;;;;;;;5071097;28;20055;-65
2021/05/28 08:16:41;;;;;;;6.53;4.15;;;;;;;;;;5070367;28;20055;-64
2021/05/28 08:19:07;;;;;;;5.97;3.92;;;;;;;;;;5070065;28;20044;-64
2021/05/28 08:21:33;;;;;;;8.75;3.80;;;;;;;;;;5069828;28;20091;-63
2021/05/28 08:23:59;;;;;;;6.13;3.75;;;;;;;;;;5066448;28;20048;-67
2021/05/28 08:26:25;;;;;;;7.38;3.90;;;;;;;;;;5074455;28;20101;-67
2021/05/28 08:28:51;;;;;;;5.65;3.33;;;;;;;;;;5074393;28;20113;-67
2021/05/28 08:31:19;;;;;;;7.28;3.63;;;;;;;;;;5076051;28;20053;-67
2021/05/28 08:33:45;;;;;;;15.27;4.97;;;;;;;;;;5074768;28;20048;-66
2021/05/28 08:36:12;;;;;;;6.43;3.45;;;;;;;;;;5074343;28;20049;-66
2021/05/28 08:38:38;;;;;;;8.63;3.78;;;;;;;;;;5073827;28;20040;-67
2021/05/28 08:41:05;;;;;;;6.95;4.13;;;;;;;;;;5073917;28;20045;-67
2021/05/28 08:43:31;;;;;;;4.65;3.75;;;;;;;;;;5074337;28;20136;-65
2021/05/28 08:46:00;;;;;;;5.35;3.47;;;;;;;;;;5074508;28;20047;-65
2021/05/28 08:48:28;;;;;;;4.93;3.70;;;;;;;;;;5074336;28;20044;-65
2021/05/28 08:50:54;;;;;;;4.70;3.92;;;;;;;;;;5074900;28;20044;-65
2021/05/28 08:53:20;;;;;;;5.43;3.80;;;;;;;;;;5074721;28;20049;-65
2021/05/28 08:55:46;;;;;;;4.95;3.92;;;;;;;;;;5074681;28;20087;-65
2021/05/28 08:58:14;;;;;;;7.70;3.80;;;;;;;;;;5074360;28;20127;-66
2021/05/28 09:00:42;;;;;;;4.72;3.63;;;;;;;;;;5074094;28;20048;-66
2021/05/28 09:03:23;;;;;;;6.90;3.70;;;;;;;;;;5073969;28;20076;-66
2021/05/28 09:05:52;;;;;;;4.85;3.55;;;;;;;;;;5073624;28;20040;-66
2021/05/28 09:08:26;;;;;;;6.15;3.53;;;;;;;;;;5070830;28;20068;-66
2021/05/28 09:10:53;;;;;;;4.50;3.17;;;;;;;;;;5069526;28;20049;-66
2021/05/28 09:13:22;;;;;;;7.68;3.70;;;;;;;;;;5063187;28;20068;-65
2021/05/28 09:15:49;;;;;;;6.18;4.07;;;;;;;;;;5070738;28;20098;-65
2021/05/28 09:18:16;;;;;;;8.77;3.95;;;;;;;;;;5068255;28;20049;-66
2021/05/28 09:20:47;;;;;;;7.30;4.00;;;;;;;;;;5068595;28;20109;-65
2021/05/28 09:23:16;;;;;;;7.32;3.53;;;;;;;;;;5065127;28;20508;-65
2021/05/28 09:26:03;;;;;;;11.23;4.05;;;;;;;;;;5061895;28;20045;-65
2021/05/28 09:28:30;;;;;;;9.05;3.83;;;;;;;;;;5054885;28;20053;-65
2021/05/28 09:30:58;;;;;;;5.60;3.75;;;;;;;;;;5073749;28;20052;-65
2021/05/28 09:33:25;;;;;;;7.05;3.92;;;;;;;;;;5054776;28;20049;-65
2021/05/28 09:35:52;;;;;;;9.88;4.00;;;;;;;;;;5054996;28;20582;-65
2021/05/28 09:38:22;;;;;;;5.85;4.05;;;;;;;;;;5055073;28;20037;-65
2021/05/28 09:40:49;;;;;;;5.20;3.92;;;;;;;;;;5054905;28;20044;-65
2021/05/28 09:43:22;;;;;;;5.25;3.42;;;;;;;;;;5054879;28;20044;-66
2021/05/28 09:45:48;;;;;;;4.85;3.80;;;;;;;;;;5063216;28;20109;-65
2021/05/28 09:48:24;;;;;;;5.43;3.85;;;;;;;;;;5074664;28;20389;-66
2021/05/28 09:50:52;;;;;;;4.72;3.83;;;;;;;;;;5074150;28;20049;-67
2021/05/28 09:53:33;;;;;;;6.15;3.70;;;;;;;;;;5074243;28;20139;-67
2021/05/28 09:56:01;;;;;;;6.78;3.83;;;;;;;;;;5074048;28;20049;-68
2021/05/28 09:58:57;;;;;;;12.93;4.20;;;;;;;;;;5074024;28;20098;-67
2021/05/28 10:01:23;;;;;;;6.78;4.20;;;;;;;;;;5074171;28;20048;-68
2021/05/28 10:04:04;;;;;;;4.65;3.40;;;;;;;;;;5075420;28;20049;-67
2021/05/28 10:06:31;;;;;;;6.38;3.30;;;;;;;;;;5075833;28;20055;-68
2021/05/28 10:09:00;;;;;;;6.20;2.78;;;;;;;;;;5074556;28;20113;-67
2021/05/28 10:11:27;;;;;;;7.20;3.60;;;;;;;;;;5073982;28;20048;-68
2021/05/28 10:13:54;;;;;;;3.90;3.20;;;;;;;;;;5074036;28;20052;-67
2021/05/28 10:16:21;;;;;;;3.83;3.15;;;;;;;;;;5073978;28;20134;-66
2021/05/28 10:18:48;;;;;;;6.32;3.10;;;;;;;;;;5073745;28;20052;-65
2021/05/28 10:21:15;;;;;;;4.97;3.78;;;;;;;;;;5072689;28;20500;-64
2021/05/28 10:23:41;;;;;;;4.85;3.30;;;;;;;;;;5067285;28;20049;-65
2021/05/28 10:26:07;;;;;;;4.43;3.47;;;;;;;;;;5062322;28;20083;-65
2021/05/28 10:28:36;;;;;;;4.05;3.15;;;;;;;;;;5085371;28;20048;-65
2021/05/28 10:31:02;;;;;;;5.40;3.75;;;;;;;;;;5089509;28;20064;-66
2021/05/28 10:33:29;;;;;;;5.05;3.22;;;;;;;;;;5093320;28;20052;-64
2021/05/28 10:35:56;;;;;;;4.95;3.50;;;;;;;;;;5093826;28;20052;-64
2021/05/28 10:38:48;;;;;;;6.03;3.63;;;;;;;;;;5086104;28;20052;-64
2021/05/28 10:41:35;;;;;;;5.72;3.47;;;;;;;;;;5093773;28;20555;-64
2021/05/28 10:44:03;;;;;;;4.35;3.35;;;;;;;;;;5093571;28;20490;-68
2021/05/28 10:46:29;;;;;;;4.28;3.45;;;;;;;;;;5083327;28;20055;-65
2021/05/28 10:49:15;;;;;;;5.25;3.22;;;;;;;;;;5074333;28;20040;-67
2021/05/28 10:52:07;;;;;;;6.15;4.07;;;;;;;;;;5073161;28;20052;-65
2021/05/28 10:54:36;;;;;;;6.25;4.13;;;;;;;;;;5076083;28;20108;-67
2021/05/28 10:57:26;;;;;;;14.50;4.15;;;;;;;;;;5072599;28;20155;-67
2021/05/28 11:00:01;;;;;;;9.73;4.57;;;;;;;;;;5072989;28;20063;-68
2021/05/28 11:02:47;;;;;;;9.77;4.03;;;;;;;;;;5073108;28;20731;-66
2021/05/28 11:05:13;;;;;;;;;;;;;;;;;;5070676;28;20048;-66
2021/05/28 11:07:43;;;;;;;5.00;3.17;;;;;;;;;;5072288;28;19935;-68
2021/05/28 11:10:20;;;;;;;5.32;3.30;;;;;;;;;;5072472;28;20053;-68
2021/05/28 11:12:47;;;;;;;5.93;3.60;;;;;;;;;;5067489;28;20045;-68
2021/05/28 11:15:15;;;;;;;5.68;4.28;;;;;;;;;;5055782;28;20070;-66
2021/05/28 11:17:52;;;;;;;7.25;4.05;;;;;;;;;;5068397;28;20393;-67
2021/05/28 11:20:24;;;;;;;7.30;4.60;;;;;;;;;;5058136;28;20113;-68
2021/05/28 11:22:50;;;;;;;6.40;4.10;;;;;;;;;;5071668;28;20094;-67
2021/05/28 11:25:17;;;;;;;6.22;4.15;;;;;;;;;;5062194;28;20140;-67
2021/05/28 11:27:55;;;;;;;5.85;4.22;;;;;;;;;;5068269;28;20055;-68
2021/05/28 11:30:23;;;;;;;5.97;3.42;;;;;;;;;;5070794;28;20190;-69
2021/05/28 11:32:49;;;;;;;6.43;4.65;;;;;;;;;;5070678;28;20118;-68
2021/05/28 11:35:18;;;;;;;8.80;4.00;;;;;;;;;;5069498;28;20040;-68
2021/05/28 11:37:48;;;;;;;5.55;4.03;;;;;;;;;;5071119;28;20071;-66
2021/05/28 11:40:16;;;;;;;5.53;3.70;;;;;;;;;;5071454;28;20385;-65
2021/05/28 11:42:42;;;;;;;4.80;3.58;;;;;;;;;;5067910;28;20048;-65
2021/05/28 11:45:11;;;;;;;6.97;4.13;;;;;;;;;;5083803;28;20048;-68
2021/05/28 11:47:37;;;;;;;7.03;4.43;;;;;;;;;;5081433;28;20105;-66
2021/05/28 11:50:05;;;;;;;6.63;3.88;;;;;;;;;;5064788;28;20048;-66
2021/05/28 11:52:31;;;;;;;5.25;3.83;;;;;;;;;;5052664;28;20052;-67
2021/05/28 11:55:06;;;;;;;5.75;3.75;;;;;;;;;;5052409;28;20041;-67
2021/05/28 11:57:32;;;;;;;4.78;3.35;;;;;;;;;;5056112;28;20148;-66
2021/05/28 11:59:58;;;;;;;5.50;3.67;;;;;;;;;;5065531;28;20086;-67
2021/05/28 12:02:47;;;;;;;12.75;3.65;;;;;;;;;;5053569;28;20052;-67
2021/05/28 12:05:29;;;;;;;5.18;3.60;;;;;;;;;;5067420;28;20062;-67
2021/05/28 12:07:56;;;;;;;5.30;3.65;;;;;;;;;;5070488;28;20102;-66
2021/05/28 12:10:23;;;;;;;4.65;3.38;;;;;;;;;;5071244;28;20055;-67
2021/05/28 12:12:53;;;;;;;6.40;3.45;;;;;;;;;;5071716;28;20388;-68
2021/05/28 12:15:20;;;;;;;7.40;4.22;;;;;;;;;;5070456;28;20106;-67
2021/05/28 12:17:47;;;;;;;6.20;3.25;;;;;;;;;;5051332;28;20131;-66
2021/05/28 12:20:19;;;;;;;5.20;3.50;;;;;;;;;;5055440;28;20052;-67
2021/05/28 12:23:13;;;;;;;6.53;3.60;;;;;;;;;;5071077;28;20098;-67
2021/05/28 12:25:46;;;;;;;5.05;3.60;;;;;;;;;;5067697;28;20079;-67
2021/05/28 12:28:17;;;;;;;5.60;3.20;;;;;;;;;;5065177;28;20084;-66
2021/05/28 12:30:46;;;;;;;5.05;3.58;;;;;;;;;;5051774;28;20053;-67
2021/05/28 12:33:13;;;;;;;3.75;3.05;;;;;;;;;;5059827;28;20056;-67
2021/05/28 12:35:40;;;;;;;4.18;3.00;;;;;;;;;;5069229;28;20047;-67
2021/05/28 12:38:11;;;;;;;4.38;3.17;;;;;;;;;;5083103;28;20052;-67
2021/05/28 12:40:39;;;;;;;3.92;3.30;;;;;;;;;;5092003;28;20403;-66
2021/05/28 12:43:06;;;;;;;4.88;2.90;;;;;;;;;;5073256;28;20087;-66
2021/05/28 12:45:34;;;;;;;6.03;3.90;;;;;;;;;;5072104;28;20045;-66
2021/05/28 12:48:00;;;;;;;6.80;4.40;;;;;;;;;;5071736;28;20044;-66
2021/05/28 12:50:33;;;;;;;5.38;4.47;;;;;;;;;;5070112;28;20076;-66
2021/05/28 12:53:00;;;;;;;6.00;4.00;;;;;;;;;;5070788;28;20128;-66
2021/05/28 12:55:33;;;;;;;5.03;3.72;;;;;;;;;;5071312;28;20048;-69
2021/05/28 12:58:00;;;;;;;7.15;4.75;;;;;;;;;;5069536;28;20510;-68
2021/05/28 13:00:34;;;;;;;5.78;3.95;;;;;;;;;;5071102;28;20036;-68
2021/05/28 13:03:01;;;;;;;6.35;4.40;;;;;;;;;;5069280;28;20374;-67
2021/05/28 13:05:32;;;;;;;6.53;4.57;;;;;;;;;;5067247;28;20537;-68
2021/05/28 13:07:58;;;;;;;4.72;3.75;;;;;;;;;;5073445;28;20048;-67
2021/05/28 13:10:25;;;;;;;9.50;4.45;;;;;;;;;;5075478;28;20071;-66
2021/05/28 13:12:52;;;;;;;7.60;5.47;;;;;;;;;;5074933;28;20052;-69
2021/05/28 13:15:20;;;;;;;6.82;4.93;;;;;;;;;;5075240;28;20056;-67
2021/05/28 13:17:53;;;;;;;8.02;5.10;;;;;;;;;;5075349;28;20048;-67
2021/05/28 13:20:19;;;;;;;6.75;4.45;;;;;;;;;;5074619;28;20044;-67
2021/05/28 13:22:48;;;;;;;6.00;4.43;;;;;;;;;;5055129;28;20135;-67
2021/05/28 13:25:16;;;;;;;7.38;4.43;;;;;;;;;;5063633;28;20087;-66
2021/05/28 13:27:42;;;;;;;9.70;4.78;;;;;;;;;;5069600;28;20147;-66
2021/05/28 13:30:10;;;;;;;6.60;3.95;;;;;;;;;;5071551;28;20052;-64
2021/05/28 13:32:38;;;;;;;6.38;4.10;;;;;;;;;;5074742;28;20089;-65
2021/05/28 13:35:07;;;;;;;5.32;4.05;;;;;;;;;;5075439;28;20052;-64
2021/05/28 13:37:33;;;;;;;7.15;4.60;;;;;;;;;;5075054;28;20055;-66
2021/05/28 13:40:00;;;;;;;6.00;4.40;;;;;;;;;;5074619;28;20055;-67
2021/05/28 13:42:27;;;;;;;7.15;3.85;;;;;;;;;;5074773;28;20049;-67
2021/05/28 13:44:53;;;;;;;7.50;4.22;;;;;;;;;;5074697;28;20059;-68
2021/05/28 13:47:19;;;;;;;5.30;4.43;;;;;;;;;;5074202;28;20106;-67
2021/05/28 13:49:46;;;;;;;6.38;4.60;;;;;;;;;;5074618;28;20052;-67
2021/05/28 13:52:12;;;;;;;5.22;3.65;;;;;;;;;;5074460;28;20050;-67
2021/05/28 13:54:38;;;;;;;7.97;4.03;;;;;;;;;;5074678;28;20127;-66
2021/05/28 13:57:06;;;;;;;5.65;3.70;;;;;;;;;;5075093;28;20041;-65
2021/05/28 13:59:33;;;;;;;5.20;3.58;;;;;;;;;;5086188;28;20040;-65
2021/05/28 14:01:59;;;;;;;6.30;3.50;;;;;;;;;;5073830;28;20131;-64
2021/05/28 14:04:25;;;;;;;5.03;3.38;;;;;;;;;;5074188;28;20045;-64
2021/05/28 14:06:53;;;;;;;4.10;2.97;;;;;;;;;;5073370;28;20059;-63
2021/05/28 14:09:19;;;;;;;7.82;3.40;;;;;;;;;;5063151;28;20511;-64
2021/05/28 14:11:45;;;;;;;4.40;3.13;;;;;;;;;;5074102;28;20045;-63
2021/05/28 14:14:12;;;;;;;4.72;3.40;;;;;;;;;;5073912;28;20049;-64
2021/05/28 14:16:38;;;;;;;4.72;3.15;;;;;;;;;;5074072;28;20063;-64
2021/05/28 14:19:04;;;;;;;5.90;2.83;;;;;;;;;;5073648;28;20496;-65
2021/05/28 14:21:30;;;;;;;5.40;3.00;;;;;;;;;;5075407;28;20131;-63
2021/05/28 14:23:56;;;;;;;4.13;3.30;;;;;;;;;;5074218;28;20487;-65
2021/05/28 14:26:22;;;;;;;5.88;3.30;;;;;;;;;;5071936;28;20060;-65
2021/05/28 14:28:48;;;;;;;5.97;3.78;;;;;;;;;;5066519;28;20044;-65
2021/05/28 14:31:16;;;;;;;5.05;3.08;;;;;;;;;;5074553;28;20537;-66
2021/05/28 14:33:51;;;;;;;4.53;3.20;;;;;;;;;;5076594;28;20385;-68
2021/05/28 14:36:17;;;;;;;4.50;2.93;;;;;;;;;;5074979;28;20048;-67
2021/05/28 14:38:44;;;;;;;4.80;2.63;;;;;;;;;;5074039;28;20139;-67
2021/05/28 14:41:10;;;;;;;5.10;3.10;;;;;;;;;;5073291;28;20052;-67
2021/05/28 14:43:38;;;;;;;4.15;2.90;;;;;;;;;;5073213;28;20044;-67
2021/05/28 14:46:04;;;;;;;4.07;2.80;;;;;;;;;;5073486;28;20054;-67